Time;durP1;ratioP1;P1;durP2;ratioP2;P2;SDS_P1;SDS_P2;PMS_P1;PMS_P2;Temp;Humidity;BMP_temperature;BMP_pressure;BME280_temperature;BME280_humidity;BME280_pressure;Samples;Min_cycle;Max_cycle;Signal;HPM_P1;HPM_P2
2022/11/28 00:02:08;;;;;;;18.70;15.93;;;4.60;1.00;;;;;;6232509;28;20245;-54
2022/11/28 00:05:12;;;;;;;23.40;16.23;;;4.70;1.00;;;;;;6218282;28;20239;-53
2022/11/28 00:08:15;;;;;;;25.17;16.77;;;4.50;1.00;;;;;;6228773;28;20648;-54
2022/11/28 00:11:20;;;;;;;20.93;15.83;;;4.50;1.00;;;;;;6235890;28;20237;-55
2022/11/28 00:14:23;;;;;;;20.40;15.30;;;4.40;1.00;;;;;;6232468;28;20230;-55
2022/11/28 00:17:26;;;;;;;18.50;16.40;;;4.40;1.00;;;;;;6213375;28;20235;-54
2022/11/28 00:20:30;;;;;;;22.07;17.30;;;4.50;1.00;;;;;;6230242;28;20249;-55
2022/11/28 00:23:34;;;;;;;22.57;17.17;;;4.50;1.00;;;;;;6235835;28;20237;-54
2022/11/28 00:26:40;;;;;;;23.60;17.00;;;4.40;1.00;;;;;;6214754;28;20455;-55
2022/11/28 00:29:43;;;;;;;23.03;18.13;;;4.40;1.00;;;;;;6229502;28;20570;-54
2022/11/28 00:32:46;;;;;;;23.93;16.80;;;4.40;1.00;;;;;;6235386;28;20238;-55
2022/11/28 00:35:49;;;;;;;23.80;17.90;;;4.40;1.00;;;;;;6234942;28;20243;-55
2022/11/28 00:38:52;;;;;;;22.37;18.07;;;4.40;1.00;;;;;;6229416;28;20238;-55
2022/11/28 00:41:56;;;;;;;27.40;19.07;;;4.60;1.00;;;;;;6246807;28;20235;-55
2022/11/28 00:44:59;;;;;;;24.07;17.57;;;4.50;1.00;;;;;;6249053;28;20249;-55
2022/11/28 00:48:02;;;;;;;23.17;18.23;;;4.40;1.00;;;;;;6239808;28;20241;-55
2022/11/28 00:51:07;;;;;;;21.70;18.70;;;4.40;1.00;;;;;;6229472;28;20238;-55
2022/11/28 00:54:10;;;;;;;22.13;18.60;;;4.60;1.00;;;;;;6237708;28;20226;-55
2022/11/28 00:57:15;;;;;;;26.17;19.00;;;4.30;1.00;;;;;;6234785;28;20752;-54
2022/11/28 01:00:18;;;;;;;27.27;18.87;;;4.30;1.00;;;;;;6210032;28;20239;-54
2022/11/28 01:03:21;;;;;;;23.60;19.17;;;4.30;1.00;;;;;;6210177;28;20247;-54
2022/11/28 01:06:26;;;;;;;25.03;20.93;;;4.40;1.00;;;;;;6210870;28;20741;-54
2022/11/28 01:09:29;;;;;;;29.33;19.03;;;4.40;1.00;;;;;;6204169;28;20619;-54
2022/11/28 01:12:34;;;;;;;26.07;19.57;;;4.30;1.00;;;;;;6215881;28;20241;-56
2022/11/28 01:15:42;;;;;;;25.97;19.10;;;4.40;1.00;;;;;;6212198;28;20235;-55
2022/11/28 01:18:45;;;;;;;21.53;18.27;;;4.50;1.00;;;;;;6209771;28;20235;-54
2022/11/28 01:21:48;;;;;;;26.63;18.20;;;4.30;1.00;;;;;;6206744;28;20239;-55
2022/11/28 01:24:51;;;;;;;21.90;19.33;;;4.30;1.00;;;;;;6212081;28;21904;-55
2022/11/28 01:27:55;;;;;;;27.03;19.23;;;4.30;1.00;;;;;;6206022;28;20247;-54
2022/11/28 01:31:03;;;;;;;23.80;18.67;;;4.10;1.00;;;;;;6202366;28;20239;-54
2022/11/28 01:34:06;;;;;;;25.83;19.53;;;4.30;1.00;;;;;;6228628;28;20235;-55
2022/11/28 01:37:09;;;;;;;24.57;18.60;;;4.10;1.00;;;;;;6233418;28;20304;-55
2022/11/28 01:40:13;;;;;;;22.90;18.97;;;4.20;1.00;;;;;;6236450;28;20232;-54
2022/11/28 01:43:18;;;;;;;23.97;19.40;;;4.40;1.00;;;;;;6237922;28;20562;-56
2022/11/28 01:46:21;;;;;;;21.73;17.07;;;4.10;1.00;;;;;;6230884;28;20236;-55
2022/11/28 01:49:30;;;;;;;24.17;18.03;;;4.30;1.00;;;;;;6226270;28;20353;-54
2022/11/28 01:52:34;;;;;;;19.40;17.13;;;4.30;1.00;;;;;;6235676;28;20836;-54
2022/11/28 01:55:42;;;;;;;18.73;16.70;;;4.20;1.00;;;;;;6221122;28;20237;-54
2022/11/28 01:58:52;;;;;;;22.80;17.20;;;4.30;1.00;;;;;;6230452;28;20246;-55
2022/11/28 02:01:55;;;;;;;21.63;17.43;;;4.50;1.00;;;;;;6229574;28;20226;-54
2022/11/28 02:04:58;;;;;;;21.73;17.67;;;4.20;1.00;;;;;;6236113;28;20321;-54
2022/11/28 02:08:02;;;;;;;20.63;17.47;;;4.00;1.00;;;;;;6192288;28;20583;-55
2022/11/28 02:11:27;;;;;;;21.77;17.27;;;4.20;1.00;;;;;;6219806;28;20239;-54
2022/11/28 02:15:09;;;;;;;20.60;15.43;;;4.10;1.00;;;;;;6210386;28;20242;-54
2022/11/28 02:18:27;;;;;;;21.77;16.90;;;4.20;1.00;;;;;;6231744;28;20311;-55
2022/11/28 02:21:44;;;;;;;22.50;17.03;;;4.20;1.00;;;;;;6258972;28;20245;-55
2022/11/28 02:25:03;;;;;;;19.33;17.13;;;4.20;1.00;;;;;;6259983;28;20230;-55
2022/11/28 02:28:36;;;;;;;19.70;17.33;;;4.00;1.00;;;;;;6213281;28;20250;-55
2022/11/28 02:32:04;;;;;;;19.50;17.40;;;4.10;1.00;;;;;;6227132;28;20770;-54
2022/11/28 02:35:12;;;;;;;17.83;15.93;;;4.10;1.00;;;;;;6232202;28;20363;-54
2022/11/28 02:38:21;;;;;;;20.27;16.60;;;4.00;1.00;;;;;;6227705;28;20245;-55
2022/11/28 02:41:31;;;;;;;18.07;16.17;;;4.20;1.00;;;;;;6236675;28;20420;-54
2022/11/28 02:44:39;;;;;;;18.40;15.73;;;4.00;1.00;;;;;;6245591;28;20238;-54
2022/11/28 02:47:48;;;;;;;18.83;16.47;;;4.10;1.00;;;;;;6229503;28;20618;-56
2022/11/28 02:50:57;;;;;;;23.00;18.03;;;4.10;1.00;;;;;;6247870;28;20257;-56
2022/11/28 02:54:02;;;;;;;19.93;16.03;;;4.10;1.00;;;;;;6247907;28;20602;-54
2022/11/28 02:57:05;;;;;;;21.10;16.73;;;4.10;1.00;;;;;;6249919;28;20735;-54
2022/11/28 03:00:24;;;;;;;19.87;16.07;;;4.00;1.00;;;;;;6212059;28;20496;-54
2022/11/28 03:03:57;;;;;;;19.00;16.97;;;4.00;1.00;;;;;;6227727;28;20314;-54
2022/11/28 03:07:08;;;;;;;20.63;16.47;;;4.10;1.00;;;;;;6228109;28;20239;-54
2022/11/28 03:10:23;;;;;;;19.30;16.93;;;4.20;1.00;;;;;;6234371;28;20234;-54
2022/11/28 03:13:37;;;;;;;19.53;16.33;;;4.00;1.00;;;;;;6229127;28;20222;-55
2022/11/28 03:16:47;;;;;;;20.33;16.53;;;4.00;1.00;;;;;;6258017;28;20246;-55
2022/11/28 03:19:58;;;;;;;19.07;17.07;;;4.20;1.00;;;;;;6227473;28;20720;-55
2022/11/28 03:23:14;;;;;;;21.73;16.37;;;4.10;1.00;;;;;;6203415;28;20366;-54
2022/11/28 03:26:24;;;;;;;22.43;17.80;;;4.20;1.00;;;;;;6205772;28;20250;-55
2022/11/28 03:29:34;;;;;;;24.00;17.80;;;4.20;1.00;;;;;;6202330;28;20231;-53
2022/11/28 03:32:39;;;;;;;23.87;18.13;;;4.20;1.00;;;;;;6209570;28;20258;-54
2022/11/28 03:35:47;;;;;;;19.30;17.03;;;3.90;1.00;;;;;;6200589;28;20681;-55
2022/11/28 03:38:54;;;;;;;22.20;17.83;;;3.90;1.00;;;;;;6201825;28;20410;-54
2022/11/28 03:42:02;;;;;;;24.23;18.33;;;3.90;1.00;;;;;;6214711;28;20254;-54
2022/11/28 03:45:11;;;;;;;24.13;18.63;;;3.80;1.00;;;;;;6251629;28;20238;-55
2022/11/28 03:48:19;;;;;;;24.37;18.53;;;3.90;1.00;;;;;;6236251;28;20413;-53
2022/11/28 03:51:29;;;;;;;22.37;17.00;;;3.90;1.00;;;;;;6242389;28;20234;-54
2022/11/28 03:54:36;;;;;;;27.30;18.70;;;3.90;1.00;;;;;;6249207;28;20237;-55
2022/11/28 03:57:44;;;;;;;25.87;20.13;;;3.90;1.00;;;;;;6228054;28;20242;-55
2022/11/28 04:00:52;;;;;;;28.33;19.07;;;4.00;1.00;;;;;;6244430;28;20230;-55
2022/11/28 04:04:05;;;;;;;24.93;18.37;;;4.10;1.00;;;;;;6236712;28;20226;-55
2022/11/28 04:07:21;;;;;;;29.13;20.03;;;4.00;1.00;;;;;;6245498;28;20234;-54
2022/11/28 04:10:33;;;;;;;26.13;18.33;;;3.90;1.00;;;;;;6245960;28;20238;-55
2022/11/28 04:13:41;;;;;;;27.67;19.30;;;3.90;1.00;;;;;;6259843;28;20676;-54
2022/11/28 04:16:51;;;;;;;22.50;17.63;;;4.00;1.00;;;;;;6249628;28;20663;-55
2022/11/28 04:20:01;;;;;;;23.70;18.20;;;4.00;1.00;;;;;;6254946;28;20245;-54
2022/11/28 04:23:10;;;;;;;26.87;19.53;;;4.10;1.00;;;;;;6235141;28;20238;-51
2022/11/28 04:26:18;;;;;;;24.27;18.57;;;4.20;1.00;;;;;;6226479;28;20253;-55
2022/11/28 04:29:23;;;;;;;26.40;18.27;;;3.80;1.00;;;;;;6238658;28;20386;-54
2022/11/28 04:32:28;;;;;;;26.27;19.07;;;3.80;1.00;;;;;;6236642;28;20239;-55
2022/11/28 04:35:34;;;;;;;28.87;19.60;;;3.90;1.00;;;;;;6240274;28;20234;-55
2022/11/28 04:38:40;;;;;;;25.07;18.80;;;3.70;1.00;;;;;;6243379;28;20241;-54
2022/11/28 04:41:48;;;;;;;24.23;19.07;;;3.80;1.00;;;;;;6242379;28;20238;-55
2022/11/28 04:44:56;;;;;;;24.60;17.83;;;3.80;1.00;;;;;;6254513;28;20300;-56
2022/11/28 04:47:59;;;;;;;27.60;18.37;;;3.90;1.00;;;;;;6245725;28;20250;-54
2022/11/28 04:51:14;;;;;;;25.07;18.60;;;3.70;1.00;;;;;;6252012;28;20245;-54
2022/11/28 04:54:22;;;;;;;21.73;17.40;;;4.10;1.00;;;;;;6240709;28;20486;-54
2022/11/28 04:57:30;;;;;;;23.37;17.17;;;3.70;1.00;;;;;;6232128;28;20273;-55
2022/11/28 05:00:35;;;;;;;26.20;18.13;;;4.10;1.00;;;;;;6245691;28;20227;-56
2022/11/28 05:03:39;;;;;;;22.00;17.70;;;3.90;1.00;;;;;;6243594;28;20246;-55
2022/11/28 05:06:45;;;;;;;24.73;18.47;;;3.80;1.00;;;;;;6236192;28;20367;-55
2022/11/28 05:09:49;;;;;;;23.23;17.47;;;4.10;1.00;;;;;;6228530;28;20239;-54
2022/11/28 05:12:53;;;;;;;27.47;18.13;;;4.10;1.00;;;;;;6242143;28;20628;-55
2022/11/28 05:15:55;;;;;;;24.07;16.60;;;4.20;1.00;;;;;;6238623;28;20231;-56
2022/11/28 05:18:59;;;;;;;27.63;18.07;;;4.00;1.00;;;;;;6231839;28;20442;-55
2022/11/28 05:22:02;;;;;;;23.60;17.43;;;4.10;1.00;;;;;;6247284;28;20732;-55
2022/11/28 05:25:07;;;;;;;27.33;17.70;;;4.10;1.00;;;;;;6243275;28;20598;-55
2022/11/28 05:28:10;;;;;;;25.97;19.10;;;4.00;1.00;;;;;;6227696;28;20249;-54
2022/11/28 05:31:14;;;;;;;24.47;18.70;;;4.10;1.00;;;;;;6248655;28;20620;-55
2022/11/28 05:34:17;;;;;;;25.83;18.83;;;4.10;1.00;;;;;;6253363;28;20241;-54
2022/11/28 05:37:20;;;;;;;28.87;18.13;;;4.20;1.00;;;;;;6227750;28;20470;-55
2022/11/28 05:40:24;;;;;;;26.70;20.50;;;4.00;1.00;;;;;;6250432;28;20587;-54
2022/11/28 05:43:28;;;;;;;22.93;17.77;;;3.90;1.00;;;;;;6243088;28;20230;-53
2022/11/28 05:46:31;;;;;;;24.93;17.97;;;4.00;1.00;;;;;;6232148;28;20374;-54
2022/11/28 05:49:34;;;;;;;24.57;18.90;;;4.20;1.00;;;;;;6198036;28;20231;-52
2022/11/28 05:52:37;;;;;;;23.80;17.90;;;4.10;1.00;;;;;;6210257;28;20614;-55
2022/11/28 05:55:41;;;;;;;26.17;19.50;;;3.90;1.00;;;;;;6217342;28;20239;-55
2022/11/28 05:58:45;;;;;;;26.20;18.57;;;4.10;1.00;;;;;;6203935;28;20231;-54
2022/11/28 06:01:48;;;;;;;25.00;18.83;;;4.10;1.00;;;;;;6215846;28;20239;-55
2022/11/28 06:04:51;;;;;;;25.00;18.57;;;4.20;1.00;;;;;;6221414;28;20261;-53
2022/11/28 06:07:54;;;;;;;26.33;18.67;;;4.30;1.00;;;;;;6210262;28;20236;-54
2022/11/28 06:10:59;;;;;;;26.50;19.63;;;4.20;1.00;;;;;;6223874;28;20465;-54
2022/11/28 06:14:03;;;;;;;23.07;18.90;;;4.30;1.00;;;;;;6242696;28;20234;-54
2022/11/28 06:17:06;;;;;;;28.40;19.07;;;4.10;1.00;;;;;;6237861;28;20237;-55
2022/11/28 06:20:09;;;;;;;29.70;19.83;;;4.20;1.00;;;;;;6248609;28;20630;-55
2022/11/28 06:23:12;;;;;;;26.30;19.60;;;4.20;1.00;;;;;;6236454;28;20406;-54
2022/11/28 06:26:18;;;;;;;27.03;19.67;;;4.30;1.00;;;;;;6235057;28;20243;-55
2022/11/28 06:29:21;;;;;;;28.87;20.07;;;4.00;1.00;;;;;;6242919;28;20388;-55
2022/11/28 06:32:24;;;;;;;26.60;19.63;;;4.20;1.00;;;;;;6242861;28;20257;-55
2022/11/28 06:35:27;;;;;;;28.63;20.50;;;4.10;1.00;;;;;;6224933;28;20238;-55
2022/11/28 06:38:31;;;;;;;27.70;20.77;;;4.10;1.00;;;;;;6232980;28;20246;-53
2022/11/28 06:41:36;;;;;;;27.30;19.93;;;4.00;1.00;;;;;;6238026;28;20238;-55
2022/11/28 06:44:38;;;;;;;25.27;19.07;;;4.10;1.00;;;;;;6234105;28;20237;-55
2022/11/28 06:47:41;;;;;;;25.80;19.27;;;4.10;1.00;;;;;;6223986;28;20630;-54
2022/11/28 06:50:44;;;;;;;28.33;19.30;;;3.90;1.00;;;;;;6233704;28;20229;-53
2022/11/28 06:53:48;;;;;;;24.97;20.33;;;3.90;1.00;;;;;;6245928;28;20238;-55
2022/11/28 06:56:52;;;;;;;29.40;20.87;;;3.90;1.00;;;;;;6236140;28;20373;-54
2022/11/28 06:59:55;;;;;;;27.13;20.73;;;3.90;1.00;;;;;;6234951;28;20239;-55
2022/11/28 07:02:58;;;;;;;29.63;20.80;;;3.80;1.00;;;;;;6228980;28;20234;-55
2022/11/28 07:06:01;;;;;;;28.20;20.57;;;4.00;1.00;;;;;;6237082;28;20238;-54
2022/11/28 07:09:04;;;;;;;30.37;20.80;;;4.00;1.00;;;;;;6238614;28;20250;-55
2022/11/28 07:12:09;;;;;;;31.00;21.47;;;3.90;1.00;;;;;;6237025;28;20231;-56
2022/11/28 07:15:12;;;;;;;28.50;20.93;;;3.90;1.00;;;;;;6241920;28;20238;-55
2022/11/28 07:18:15;;;;;;;30.47;21.13;;;3.70;1.00;;;;;;6228845;28;20234;-55
2022/11/28 07:21:19;;;;;;;30.10;20.27;;;3.80;1.00;;;;;;6233626;28;20227;-55
2022/11/28 07:24:22;;;;;;;26.13;20.50;;;3.90;1.00;;;;;;6233056;28;20817;-55
2022/11/28 07:27:26;;;;;;;29.77;19.97;;;3.80;1.00;;;;;;6234807;28;20242;-55
2022/11/28 07:30:29;;;;;;;28.03;20.30;;;3.90;1.00;;;;;;6243469;28;20296;-55
2022/11/28 07:33:32;;;;;;;29.50;20.87;;;3.80;1.00;;;;;;6230062;28;20238;-55
2022/11/28 07:36:35;;;;;;;28.77;20.17;;;3.90;1.00;;;;;;6237891;28;20246;-53
2022/11/28 07:39:38;;;;;;;29.63;21.20;;;4.10;1.00;;;;;;6232684;28;20234;-55
2022/11/28 07:42:42;;;;;;;25.00;19.67;;;4.10;1.00;;;;;;6234678;28;20246;-57
2022/11/28 07:45:45;;;;;;;30.67;21.37;;;4.00;1.00;;;;;;6235632;28;20246;-54
2022/11/28 07:49:03;;;;;;;32.03;20.27;;;4.00;1.00;;;;;;6223330;28;20368;-53
2022/11/28 07:52:06;;;;;;;28.37;20.17;;;4.20;1.00;;;;;;6230945;28;20376;-55
2022/11/28 07:55:09;;;;;;;26.30;20.67;;;4.10;1.00;;;;;;6234129;28;20242;-55
2022/11/28 07:58:13;;;;;;;27.80;20.33;;;4.00;1.00;;;;;;6225013;28;20720;-55
2022/11/28 08:01:19;;;;;;;29.60;19.63;;;4.30;1.00;;;;;;6234962;28;20234;-55
2022/11/28 08:04:22;;;;;;;28.93;21.40;;;4.10;1.00;;;;;;6234180;28;20230;-55
2022/11/28 08:07:25;;;;;;;27.70;19.67;;;4.20;1.00;;;;;;6228954;28;20246;-55
2022/11/28 08:10:28;;;;;;;27.47;19.73;;;4.10;1.00;;;;;;6238744;28;20739;-54
2022/11/28 08:13:33;;;;;;;29.23;19.77;;;4.30;1.00;;;;;;6235330;28;20302;-55
2022/11/28 08:16:39;;;;;;;27.80;20.67;;;4.30;1.00;;;;;;6232117;28;20258;-54
2022/11/28 08:19:43;;;;;;;26.57;20.70;;;4.30;1.00;;;;;;6221722;28;20250;-55
2022/11/28 08:22:45;;;;;;;28.50;20.33;;;4.40;1.00;;;;;;6229350;28;20242;-53
2022/11/28 08:25:48;;;;;;;26.90;19.90;;;4.50;1.00;;;;;;6240988;28;20466;-55
2022/11/28 08:28:53;;;;;;;29.27;19.90;;;4.40;1.00;;;;;;6228773;28;20247;-54
2022/11/28 08:31:56;;;;;;;29.63;20.80;;;4.30;1.00;;;;;;6218232;28;20242;-53
2022/11/28 08:34:59;;;;;;;28.17;19.83;;;4.40;1.00;;;;;;6233348;28;20230;-55
2022/11/28 08:38:02;;;;;;;27.63;19.60;;;4.60;1.00;;;;;;6226810;28;20231;-56
2022/11/28 08:41:06;;;;;;;28.20;19.43;;;4.60;1.00;;;;;;6227536;28;20235;-53
2022/11/28 08:44:11;;;;;;;28.70;20.87;;;4.70;1.00;;;;;;6235297;28;20725;-53
2022/11/28 08:47:14;;;;;;;29.23;20.63;;;4.80;1.00;;;;;;6231685;28;20243;-54
2022/11/28 08:50:17;;;;;;;28.57;19.10;;;4.60;1.00;;;;;;6237678;28;20246;-53
2022/11/28 08:53:20;;;;;;;32.33;20.57;;;4.60;1.00;;;;;;6235026;28;20391;-53
2022/11/28 08:56:23;;;;;;;26.53;19.53;;;4.70;1.00;;;;;;6234953;28;20646;-54
2022/11/28 08:59:27;;;;;;;30.23;20.13;;;4.50;1.00;;;;;;6232728;28;20650;-58
2022/11/28 09:02:30;;;;;;;28.57;19.93;;;4.60;1.00;;;;;;6232314;28;20230;-55
2022/11/28 09:05:33;;;;;;;31.23;19.90;;;4.80;1.00;;;;;;6232760;28;20246;-55
2022/11/28 09:08:36;;;;;;;26.30;19.47;;;4.80;1.00;;;;;;6224814;28;20726;-54
2022/11/28 09:11:39;;;;;;;26.00;19.83;;;4.90;1.00;;;;;;6230600;28;20747;-55
2022/11/28 09:14:44;;;;;;;25.43;19.67;;;5.00;1.00;;;;;;6242933;28;20249;-53
2022/11/28 09:17:47;;;;;;;27.87;19.63;;;5.00;1.00;;;;;;6232605;28;20242;-55
2022/11/28 09:20:50;;;;;;;26.70;20.10;;;5.30;1.00;;;;;;6232100;28;20258;-55
2022/11/28 09:23:55;;;;;;;26.73;19.03;;;5.10;1.00;;;;;;6235425;28;20226;-53
2022/11/28 09:26:58;;;;;;;27.77;19.30;;;5.10;1.00;;;;;;6231650;28;20238;-61
2022/11/28 09:30:03;;;;;;;30.13;19.17;;;5.30;1.00;;;;;;6236072;28;20238;-55
2022/11/28 09:33:06;;;;;;;24.57;19.03;;;5.10;1.00;;;;;;6231260;28;20237;-54
2022/11/28 09:36:11;;;;;;;25.77;19.60;;;5.10;1.00;;;;;;6232167;28;20249;-54
2022/11/28 09:39:16;;;;;;;30.03;20.60;;;5.20;1.00;;;;;;6223473;28;20525;-55
2022/11/28 09:42:26;;;;;;;26.70;19.47;;;5.40;1.00;;;;;;6236219;28;20231;-54
2022/11/28 09:45:32;;;;;;;27.57;20.40;;;5.10;1.00;;;;;;6235343;28;20238;-54
2022/11/28 09:48:38;;;;;;;30.63;20.37;;;5.20;1.00;;;;;;6227137;28;20232;-55
2022/11/28 09:51:49;;;;;;;29.60;21.20;;;5.10;1.00;;;;;;6228047;28;20610;-54
2022/11/28 09:55:00;;;;;;;28.40;19.07;;;5.00;1.00;;;;;;6232394;28;20234;-54
2022/11/28 09:58:09;;;;;;;31.50;20.47;;;5.20;1.00;;;;;;6234573;28;20243;-53
2022/11/28 10:01:18;;;;;;;29.97;20.70;;;5.30;1.00;;;;;;6228217;28;20235;-53
2022/11/28 10:04:27;;;;;;;29.50;20.23;;;5.40;1.00;;;;;;6237695;28;20249;-54
2022/11/28 10:07:39;;;;;;;27.93;19.03;;;5.60;1.00;;;;;;6235431;28;20242;-56
2022/11/28 10:10:52;;;;;;;29.57;20.03;;;5.40;1.00;;;;;;6245290;28;20907;-57
2022/11/28 10:14:02;;;;;;;26.80;20.17;;;5.70;1.00;;;;;;6237467;28;20400;-54
2022/11/28 10:17:20;;;;;;;30.57;20.20;;;5.70;1.00;;;;;;6232533;28;20250;-54
2022/11/28 10:20:27;;;;;;;27.57;19.67;;;5.80;1.00;;;;;;6233085;28;20247;-54
2022/11/28 10:23:34;;;;;;;28.87;20.13;;;6.00;1.00;;;;;;6229319;28;20238;-54
2022/11/28 10:26:41;;;;;;;29.10;21.90;;;5.90;1.00;;;;;;6233364;28;20239;-53
2022/11/28 10:29:50;;;;;;;29.83;20.40;;;5.80;1.00;;;;;;6228702;28;20241;-54
2022/11/28 10:33:01;;;;;;;29.53;20.03;;;5.90;1.00;;;;;;6241190;28;20230;-54
2022/11/28 10:36:05;;;;;;;27.73;19.83;;;6.00;1.00;;;;;;6229885;28;20241;-53
2022/11/28 10:39:13;;;;;;;30.83;20.70;;;5.90;1.00;;;;;;6231996;28;20230;-54
2022/11/28 10:42:21;;;;;;;30.47;21.30;;;6.10;1.00;;;;;;6235015;28;20243;-54
2022/11/28 10:45:31;;;;;;;37.03;21.20;;;6.00;1.00;;;;;;6240216;28;20241;-53
2022/11/28 10:48:45;;;;;;;28.37;20.50;;;6.10;1.00;;;;;;6229767;28;20235;-54
2022/11/28 10:51:59;;;;;;;26.87;19.43;;;6.30;1.00;;;;;;6233459;28;20242;-54
2022/11/28 10:55:22;;;;;;;29.70;20.00;;;6.00;1.00;;;;;;6238277;28;20242;-54
2022/11/28 10:58:32;;;;;;;33.43;20.53;;;6.10;1.00;;;;;;6230066;28;20225;-55
2022/11/28 11:01:38;;;;;;;29.67;20.20;;;6.00;1.00;;;;;;6227810;28;20234;-55
2022/11/28 11:04:42;;;;;;;28.80;19.63;;;6.20;1.00;;;;;;6230219;28;20226;-55
2022/11/28 11:07:50;;;;;;;26.73;19.10;;;6.00;1.00;;;;;;6215361;28;20254;-53
2022/11/28 11:11:01;;;;;;;29.33;19.60;;;6.10;1.00;;;;;;6216161;28;20380;-54
2022/11/28 11:14:06;;;;;;;28.17;20.90;;;6.10;1.00;;;;;;6216682;28;20633;-54
2022/11/28 11:17:31;;;;;;;29.73;19.63;;;6.20;1.00;;;;;;6211874;28;20232;-55
2022/11/28 11:20:40;;;;;;;27.83;20.07;;;6.20;1.00;;;;;;6206667;28;20228;-54
2022/11/28 11:23:43;;;;;;;28.77;20.67;;;6.40;1.00;;;;;;6210053;28;20226;-54
2022/11/28 11:26:48;;;;;;;31.23;20.60;;;6.30;1.00;;;;;;6211066;28;20236;-54
2022/11/28 11:29:51;;;;;;;31.33;19.87;;;6.30;1.00;;;;;;6214541;28;20235;-54
2022/11/28 11:32:56;;;;;;;31.83;21.13;;;6.40;1.00;;;;;;6206091;28;20581;-55
2022/11/28 11:36:04;;;;;;;27.87;19.10;;;6.50;1.00;;;;;;6209184;28;20239;-55
2022/11/28 11:39:21;;;;;;;27.27;19.37;;;6.50;1.00;;;;;;6204868;28;20390;-54
2022/11/28 11:42:26;;;;;;;24.83;18.87;;;6.50;1.00;;;;;;6211246;28;20228;-55
2022/11/28 11:45:30;;;;;;;26.17;18.23;;;6.60;1.00;;;;;;6215958;28;20222;-54
2022/11/28 11:48:39;;;;;;;30.33;19.97;;;6.70;1.00;;;;;;6202171;28;20243;-54
2022/11/28 11:51:44;;;;;;;30.30;20.13;;;6.70;1.00;;;;;;6200530;28;20240;-55
2022/11/28 11:54:57;;;;;;;26.50;19.63;;;6.70;1.00;;;;;;6221068;28;20732;-51
2022/11/28 11:58:03;;;;;;;26.23;17.77;;;6.80;1.00;;;;;;6223554;28;20239;-55
2022/11/28 12:01:11;;;;;;;23.20;17.80;;;6.70;1.00;;;;;;6234584;28;20234;-53
2022/11/28 12:04:18;;;;;;;26.07;18.23;;;6.80;1.00;;;;;;6232896;28;20607;-54
2022/11/28 12:07:53;;;;;;;29.97;20.03;;;6.90;1.00;;;;;;6229355;28;20330;-54
2022/11/28 12:11:08;;;;;;;25.23;18.20;;;6.80;1.00;;;;;;6239194;28;20245;-53
2022/11/28 12:14:27;;;;;;;26.40;17.77;;;6.80;1.00;;;;;;6232177;28;20227;-54
2022/11/28 12:17:46;;;;;;;25.23;17.20;;;6.90;1.00;;;;;;6230169;28;20289;-53
2022/11/28 12:21:12;;;;;;;26.10;17.37;;;7.00;1.00;;;;;;6231886;28;20257;-54
2022/11/28 12:24:21;;;;;;;22.67;17.83;;;7.00;1.00;;;;;;6232905;28;20622;-53
2022/11/28 12:27:34;;;;;;;22.37;16.63;;;7.00;1.00;;;;;;6233452;28;20275;-55
2022/11/28 12:30:54;;;;;;;25.03;17.33;;;7.10;1.00;;;;;;6237339;28;20253;-54
2022/11/28 12:34:09;;;;;;;23.37;17.37;;;7.10;1.00;;;;;;6224725;28;20647;-55
2022/11/28 12:37:24;;;;;;;27.57;18.60;;;7.00;1.00;;;;;;6230566;28;20929;-54
2022/11/28 12:40:53;;;;;;;24.67;18.27;;;7.00;1.00;;;;;;6235693;28;20301;-54
2022/11/28 12:44:04;;;;;;;20.53;17.73;;;6.80;1.00;;;;;;6232952;28;20243;-54
2022/11/28 12:47:14;;;;;;;27.90;20.20;;;6.80;1.00;;;;;;6231051;28;20288;-54
2022/11/28 12:50:29;;;;;;;25.20;17.83;;;6.80;1.00;;;;;;6225470;28;20359;-59
2022/11/28 12:53:56;;;;;;;27.40;19.03;;;6.80;1.00;;;;;;6234788;28;20234;-52
2022/11/28 12:57:10;;;;;;;24.73;17.37;;;6.80;1.00;;;;;;6227546;28;20926;-56
2022/11/28 13:00:17;;;;;;;28.20;19.13;;;6.80;1.00;;;;;;6233661;28;20219;-54
2022/11/28 13:03:34;;;;;;;24.87;18.37;;;6.70;1.00;;;;;;6233361;28;20365;-55
2022/11/28 13:06:46;;;;;;;28.40;18.40;;;6.70;1.00;;;;;;6225834;28;20445;-55
2022/11/28 13:10:00;;;;;;;22.67;17.27;;;6.80;1.00;;;;;;6224450;28;20235;-54
2022/11/28 13:13:09;;;;;;;25.17;18.20;;;6.80;1.00;;;;;;6216745;28;20239;-54
2022/11/28 13:16:21;;;;;;;25.00;18.43;;;6.80;1.00;;;;;;6216170;28;20235;-53
2022/11/28 13:19:38;;;;;;;27.10;19.07;;;6.80;1.00;;;;;;6207331;28;20252;-54
2022/11/28 13:22:56;;;;;;;26.10;18.93;;;6.70;1.00;;;;;;6208502;28;20618;-56
2022/11/28 13:26:09;;;;;;;28.70;19.33;;;6.60;1.00;;;;;;6232044;28;20243;-54
2022/11/28 13:29:23;;;;;;;28.27;19.70;;;6.50;1.00;;;;;;6229397;28;20618;-54
2022/11/28 13:32:34;;;;;;;25.77;19.07;;;6.50;1.00;;;;;;6231957;28;20237;-54
2022/11/28 13:35:39;;;;;;;25.40;19.50;;;6.50;1.00;;;;;;6228263;28;20239;-54
2022/11/28 13:38:49;;;;;;;28.20;18.83;;;6.30;1.00;;;;;;6226346;28;20238;-53
2022/11/28 13:42:26;;;;;;;36.90;20.87;;;6.30;1.00;;;;;;6235375;28;20304;-55
2022/11/28 13:45:51;;;;;;;29.10;20.90;;;6.50;1.00;;;;;;6230872;28;20410;-54
2022/11/28 13:49:08;;;;;;;30.37;20.53;;;6.30;1.00;;;;;;6225395;28;20242;-54
2022/11/28 13:52:33;;;;;;;27.13;19.33;;;6.10;1.00;;;;;;6234241;28;20230;-55
2022/11/28 13:55:39;;;;;;;30.73;21.20;;;6.30;1.00;;;;;;6232117;28;20538;-54
2022/11/28 13:58:47;;;;;;;33.30;21.27;;;6.40;1.00;;;;;;6233519;28;20247;-54
2022/11/28 14:01:57;;;;;;;26.67;19.67;;;6.10;1.00;;;;;;6227179;28;20238;-54
2022/11/28 14:05:01;;;;;;;31.53;20.67;;;6.40;1.00;;;;;;6233521;28;20743;-55
2022/11/28 14:08:06;;;;;;;28.03;20.33;;;6.10;1.00;;;;;;6234316;28;20246;-56
2022/11/28 14:11:31;;;;;;;28.03;20.60;;;6.10;1.00;;;;;;6236015;28;20466;-53
2022/11/28 14:14:59;;;;;;;36.27;23.90;;;6.10;1.00;;;;;;6235401;28;20242;-54
2022/11/28 14:18:26;;;;;;;35.03;23.67;;;6.00;1.00;;;;;;6212286;28;20282;-55
2022/11/28 14:22:06;;;;;;;36.93;25.90;;;6.00;1.00;;;;;;6226939;28;20239;-54
2022/11/28 14:25:16;;;;;;;36.83;25.17;;;6.00;1.00;;;;;;6224155;28;20246;-53
2022/11/28 14:28:23;;;;;;;37.90;26.67;;;6.00;1.00;;;;;;6232086;28;20235;-55
2022/11/28 14:31:31;;;;;;;43.20;27.37;;;5.80;1.00;;;;;;6233125;28;20624;-54
2022/11/28 14:34:42;;;;;;;39.83;26.37;;;6.00;1.00;;;;;;6232095;28;20242;-55
2022/11/28 14:37:51;;;;;;;39.10;27.20;;;5.70;1.00;;;;;;6226823;28;20374;-55
2022/11/28 14:41:04;;;;;;;44.53;28.20;;;5.80;1.00;;;;;;6236590;28;20235;-54
2022/11/28 14:44:44;;;;;;;41.63;27.37;;;5.70;1.00;;;;;;6230553;28;20245;-54
2022/11/28 14:48:06;;;;;;;39.70;26.70;;;5.50;1.00;;;;;;6225707;28;20243;-53
2022/11/28 14:51:10;;;;;;;38.67;27.97;;;5.60;1.00;;;;;;6226648;28;20256;-55
2022/11/28 14:54:20;;;;;;;41.50;28.17;;;5.30;1.00;;;;;;6235150;28;20238;-55
2022/11/28 14:57:26;;;;;;;43.27;28.50;;;5.30;1.00;;;;;;6226362;28;20238;-52
2022/11/28 15:00:34;;;;;;;39.97;27.10;;;5.50;1.00;;;;;;6218206;28;20253;-55
2022/11/28 15:03:46;;;;;;;41.20;29.43;;;5.60;1.00;;;;;;6202592;28;20306;-55
2022/11/28 15:06:50;;;;;;;38.27;26.47;;;5.50;1.00;;;;;;6209107;28;20725;-54
2022/11/28 15:10:03;;;;;;;41.23;29.20;;;5.60;1.00;;;;;;6210053;28;20315;-55
2022/11/28 15:13:33;;;;;;;44.93;28.33;;;5.40;1.00;;;;;;6213343;28;20228;-55
2022/11/28 15:16:41;;;;;;;47.40;28.70;;;5.30;1.00;;;;;;6201351;28;20610;-54
2022/11/28 15:19:52;;;;;;;43.73;28.30;;;5.10;1.00;;;;;;6238331;28;20579;-55
2022/11/28 15:22:56;;;;;;;41.30;27.80;;;5.30;1.00;;;;;;6233032;28;20234;-54
2022/11/28 15:26:01;;;;;;;40.13;27.03;;;5.30;1.00;;;;;;6227458;28;20254;-55
2022/11/28 15:29:16;;;;;;;40.53;27.30;;;4.90;1.00;;;;;;6224351;28;20265;-55
2022/11/28 15:32:19;;;;;;;43.47;29.00;;;5.30;1.00;;;;;;6225185;28;20234;-53
2022/11/28 15:35:22;;;;;;;40.77;27.97;;;5.20;1.00;;;;;;6225491;28;20239;-54
2022/11/28 15:38:29;;;;;;;45.57;28.80;;;4.80;1.00;;;;;;6231058;28;20238;-54
2022/11/28 15:41:32;;;;;;;44.43;28.00;;;5.00;1.00;;;;;;6228887;28;20231;-55
2022/11/28 15:44:36;;;;;;;39.17;27.73;;;5.00;1.00;;;;;;6231905;28;20985;-55
2022/11/28 15:47:39;;;;;;;40.37;27.43;;;5.00;1.00;;;;;;6234781;28;20762;-55
2022/11/28 15:50:50;;;;;;;41.77;27.93;;;4.90;1.00;;;;;;6234690;28;20620;-55
2022/11/28 15:53:54;;;;;;;51.07;29.40;;;4.80;1.00;;;;;;6230980;28;20245;-54
2022/11/28 15:56:58;;;;;;;43.20;27.83;;;4.70;1.00;;;;;;6236976;28;20257;-54
2022/11/28 16:00:02;;;;;;;42.53;27.10;;;5.00;1.00;;;;;;6235895;28;20543;-58
2022/11/28 16:03:05;;;;;;;44.33;29.00;;;4.90;1.00;;;;;;6234032;28;20245;-55
2022/11/28 16:06:08;;;;;;;44.87;28.20;;;4.90;1.00;;;;;;6237687;28;20234;-54
2022/11/28 16:09:26;;;;;;;43.23;29.43;;;4.80;1.00;;;;;;6229300;28;20226;-55
2022/11/28 16:12:30;;;;;;;43.57;28.13;;;4.90;1.00;;;;;;6242144;28;20462;-57
2022/11/28 16:15:33;;;;;;;40.67;27.70;;;4.50;1.00;;;;;;6235546;28;20237;-54
2022/11/28 16:18:36;;;;;;;42.03;28.10;;;4.80;1.00;;;;;;6234312;28;20872;-55
2022/11/28 16:21:46;;;;;;;44.93;29.17;;;4.90;1.00;;;;;;6239199;28;20235;-53